Terminal Aerodrome Forecast
Issued by NWS

Home | Current Version | Previous Version | Text Only | Print | Product List | Glossary Off
Versions: 1 2 3 4 5 6 7 8 9 10 11 12 13 14 15 16 17

000
FTUS43 KBIS 270522
TAFMOT
TAF
KMOT 270522Z 2706/2806 13007KT P6SM SCT080 BKN150
     FM271500 12012KT P6SM -SHRA VCTS BKN040CB
     FM271900 14018G28KT P6SM BKN050
     FM280200 11020KT P6SM VCTS OVC050CB=

USA.gov is the U.S. government's official web portal to all federal, state and local government web resources and services.